sensor_id;sensor_type;location;lat;lon;timestamp;pressure;altitude;pressure_sealevel;temperature;humidity
8298;BME280;4187;42.778;23.242;2023-05-02T00:00:26;95612.19;;;11.49;100.00
8298;BME280;4187;42.778;23.242;2023-05-02T00:02:54;95610.69;;;11.37;100.00
8298;BME280;4187;42.778;23.242;2023-05-02T00:05:21;95596.94;;;11.24;100.00
8298;BME280;4187;42.778;23.242;2023-05-02T00:07:49;95610.13;;;11.33;100.00
8298;BME280;4187;42.778;23.242;2023-05-02T00:10:16;95614.88;;;11.30;100.00
8298;BME280;4187;42.778;23.242;2023-05-02T00:12:44;95619.72;;;11.25;100.00
8298;BME280;4187;42.778;23.242;2023-05-02T00:15:11;95566.94;;;10.96;100.00
8298;BME280;4187;42.778;23.242;2023-05-02T00:17:39;95580.97;;;11.06;100.00
8298;BME280;4187;42.778;23.242;2023-05-02T00:20:09;95614.03;;;11.29;100.00
8298;BME280;4187;42.778;23.242;2023-05-02T00:22:37;95601.66;;;11.20;100.00
8298;BME280;4187;42.778;23.242;2023-05-02T00:25:05;95601.69;;;11.11;100.00
8298;BME280;4187;42.778;23.242;2023-05-02T00:27:32;95614.72;;;11.22;100.00
8298;BME280;4187;42.778;23.242;2023-05-02T00:29:59;95619.47;;;11.18;100.00
8298;BME280;4187;42.778;23.242;2023-05-02T00:32:26;95624.34;;;11.13;100.00
8298;BME280;4187;42.778;23.242;2023-05-02T00:34:53;95633.22;;;11.22;100.00
8298;BME280;4187;42.778;23.242;2023-05-02T00:37:25;95627.94;;;11.31;100.00
8298;BME280;4187;42.778;23.242;2023-05-02T00:39:53;95632.25;;;11.32;100.00
8298;BME280;4187;42.778;23.242;2023-05-02T00:42:20;95637.25;;;11.26;100.00
8298;BME280;4187;42.778;23.242;2023-05-02T00:44:47;95640.06;;;11.24;100.00
8298;BME280;4187;42.778;23.242;2023-05-02T00:47:14;95645.34;;;11.24;100.00
8298;BME280;4187;42.778;23.242;2023-05-02T00:49:41;95644.50;;;11.24;100.00
8298;BME280;4187;42.778;23.242;2023-05-02T00:52:08;95647.00;;;11.25;100.00
8298;BME280;4187;42.778;23.242;2023-05-02T00:54:37;95645.47;;;11.23;100.00
8298;BME280;4187;42.778;23.242;2023-05-02T00:57:05;95639.63;;;11.19;100.00
8298;BME280;4187;42.778;23.242;2023-05-02T00:59:33;95629.91;;;11.10;100.00
8298;BME280;4187;42.778;23.242;2023-05-02T01:02:10;95649.63;;;11.06;100.00
8298;BME280;4187;42.778;23.242;2023-05-02T01:04:49;95644.78;;;11.02;100.00
8298;BME280;4187;42.778;23.242;2023-05-02T01:07:34;95639.75;;;10.99;100.00
8298;BME280;4187;42.778;23.242;2023-05-02T01:10:15;95644.06;;;10.90;100.00
8298;BME280;4187;42.778;23.242;2023-05-02T01:12:49;95642.41;;;10.89;100.00
8298;BME280;4187;42.778;23.242;2023-05-02T01:15:19;95641.00;;;10.85;100.00
8298;BME280;4187;42.778;23.242;2023-05-02T01:17:47;95645.88;;;10.70;100.00
8298;BME280;4187;42.778;23.242;2023-05-02T01:23:51;95620.63;;;10.28;100.00
8298;BME280;4187;42.778;23.242;2023-05-02T01:26:29;95634.81;;;10.46;100.00
8298;BME280;4187;42.778;23.242;2023-05-02T01:29:00;95636.22;;;10.41;100.00
8298;BME280;4187;42.778;23.242;2023-05-02T01:31:30;95631.22;;;10.38;100.00
8298;BME280;4187;42.778;23.242;2023-05-02T01:34:00;95631.75;;;10.32;100.00
8298;BME280;4187;42.778;23.242;2023-05-02T01:36:30;95634.81;;;10.37;100.00
8298;BME280;4187;42.778;23.242;2023-05-02T01:38:59;95632.16;;;10.37;100.00
8298;BME280;4187;42.778;23.242;2023-05-02T01:41:30;95636.72;;;10.25;100.00
8298;BME280;4187;42.778;23.242;2023-05-02T01:44:00;95641.44;;;10.22;100.00
8298;BME280;4187;42.778;23.242;2023-05-02T01:46:30;95639.19;;;10.17;100.00
8298;BME280;4187;42.778;23.242;2023-05-02T01:49:00;95646.25;;;10.16;100.00
8298;BME280;4187;42.778;23.242;2023-05-02T01:51:29;95643.75;;;10.15;100.00
8298;BME280;4187;42.778;23.242;2023-05-02T01:53:58;95653.91;;;10.19;100.00
8298;BME280;4187;42.778;23.242;2023-05-02T01:56:28;95646.41;;;10.15;100.00
8298;BME280;4187;42.778;23.242;2023-05-02T01:58:57;95641.34;;;10.12;100.00
8298;BME280;4187;42.778;23.242;2023-05-02T02:01:26;95642.72;;;10.06;100.00
8298;BME280;4187;42.778;23.242;2023-05-02T02:03:55;95643.06;;;10.13;100.00
8298;BME280;4187;42.778;23.242;2023-05-02T02:06:23;95644.25;;;10.09;100.00
8298;BME280;4187;42.778;23.242;2023-05-02T02:08:51;95644.25;;;10.09;100.00
8298;BME280;4187;42.778;23.242;2023-05-02T02:11:23;95635.75;;;9.96;100.00
8298;BME280;4187;42.778;23.242;2023-05-02T02:13:55;95632.00;;;9.98;100.00
8298;BME280;4187;42.778;23.242;2023-05-02T02:16:30;95631.56;;;9.93;100.00
8298;BME280;4187;42.778;23.242;2023-05-02T02:19:04;95638.09;;;9.89;100.00
8298;BME280;4187;42.778;23.242;2023-05-02T02:21:33;95635.03;;;9.94;100.00
8298;BME280;4187;42.778;23.242;2023-05-02T02:24:02;95641.69;;;9.88;100.00
8298;BME280;4187;42.778;23.242;2023-05-02T02:26:29;95645.16;;;9.89;100.00
8298;BME280;4187;42.778;23.242;2023-05-02T02:28:56;95639.44;;;9.84;100.00
8298;BME280;4187;42.778;23.242;2023-05-02T02:31:23;95631.91;;;9.79;100.00
8298;BME280;4187;42.778;23.242;2023-05-02T02:33:57;95641.25;;;9.83;100.00
8298;BME280;4187;42.778;23.242;2023-05-02T02:36:28;95616.72;;;9.62;100.00
8298;BME280;4187;42.778;23.242;2023-05-02T02:39:03;95610.19;;;9.56;100.00
8298;BME280;4187;42.778;23.242;2023-05-02T02:41:38;95639.78;;;9.70;100.00
8298;BME280;4187;42.778;23.242;2023-05-02T02:44:16;95645.50;;;9.75;100.00
8298;BME280;4187;42.778;23.242;2023-05-02T02:46:53;95642.28;;;9.71;100.00
8298;BME280;4187;42.778;23.242;2023-05-02T02:49:31;95646.84;;;9.69;100.00
8298;BME280;4187;42.778;23.242;2023-05-02T02:52:05;95637.00;;;9.71;100.00
8298;BME280;4187;42.778;23.242;2023-05-02T02:54:40;95628.16;;;9.72;100.00
8298;BME280;4187;42.778;23.242;2023-05-02T02:57:15;95646.19;;;9.77;100.00
8298;BME280;4187;42.778;23.242;2023-05-02T02:59:50;95659.00;;;9.81;100.00
8298;BME280;4187;42.778;23.242;2023-05-02T03:02:21;95654.28;;;9.85;100.00
8298;BME280;4187;42.778;23.242;2023-05-02T03:04:55;95657.59;;;9.87;100.00
8298;BME280;4187;42.778;23.242;2023-05-02T03:07:22;95663.03;;;9.85;100.00
8298;BME280;4187;42.778;23.242;2023-05-02T03:09:49;95635.34;;;9.70;100.00
8298;BME280;4187;42.778;23.242;2023-05-02T03:12:16;95665.16;;;9.91;100.00
8298;BME280;4187;42.778;23.242;2023-05-02T03:14:43;95674.34;;;9.97;100.00
8298;BME280;4187;42.778;23.242;2023-05-02T03:17:11;95670.41;;;9.91;100.00
8298;BME280;4187;42.778;23.242;2023-05-02T03:19:38;95671.78;;;9.86;100.00
8298;BME280;4187;42.778;23.242;2023-05-02T03:22:06;95686.34;;;9.90;100.00
8298;BME280;4187;42.778;23.242;2023-05-02T03:24:33;95679.59;;;9.97;100.00
8298;BME280;4187;42.778;23.242;2023-05-02T03:27:00;95679.72;;;9.95;100.00
8298;BME280;4187;42.778;23.242;2023-05-02T03:29:27;95675.03;;;9.99;100.00
8298;BME280;4187;42.778;23.242;2023-05-02T03:31:54;95685.97;;;9.94;100.00
8298;BME280;4187;42.778;23.242;2023-05-02T03:34:20;95684.56;;;9.90;100.00
8298;BME280;4187;42.778;23.242;2023-05-02T03:36:55;95678.88;;;9.95;100.00
8298;BME280;4187;42.778;23.242;2023-05-02T03:39:24;95665.44;;;10.18;100.00
8298;BME280;4187;42.778;23.242;2023-05-02T03:41:51;95673.00;;;10.92;100.00
8298;BME280;4187;42.778;23.242;2023-05-02T03:44:18;95677.84;;;11.44;100.00
8298;BME280;4187;42.778;23.242;2023-05-02T03:46:45;95674.22;;;11.83;100.00
8298;BME280;4187;42.778;23.242;2023-05-02T03:49:11;95681.22;;;12.21;100.00
8298;BME280;4187;42.778;23.242;2023-05-02T03:51:38;95686.09;;;12.53;100.00
8298;BME280;4187;42.778;23.242;2023-05-02T03:54:05;95693.44;;;12.86;100.00
8298;BME280;4187;42.778;23.242;2023-05-02T03:56:35;95698.19;;;13.10;100.00
8298;BME280;4187;42.778;23.242;2023-05-02T03:59:03;95704.63;;;13.25;100.00
8298;BME280;4187;42.778;23.242;2023-05-02T04:01:30;95707.44;;;13.41;100.00
8298;BME280;4187;42.778;23.242;2023-05-02T04:03:57;95708.03;;;13.53;100.00
8298;BME280;4187;42.778;23.242;2023-05-02T04:06:23;95712.75;;;13.59;100.00
8298;BME280;4187;42.778;23.242;2023-05-02T04:08:50;95715.94;;;13.62;100.00
8298;BME280;4187;42.778;23.242;2023-05-02T04:11:17;95718.88;;;13.59;100.00
8298;BME280;4187;42.778;23.242;2023-05-02T04:13:45;95727.97;;;13.39;100.00
8298;BME280;4187;42.778;23.242;2023-05-02T04:16:12;95718.72;;;13.08;100.00
8298;BME280;4187;42.778;23.242;2023-05-02T04:18:39;95726.19;;;12.85;100.00
8298;BME280;4187;42.778;23.242;2023-05-02T04:21:06;95717.50;;;12.66;100.00
8298;BME280;4187;42.778;23.242;2023-05-02T04:23:34;95718.97;;;12.50;100.00
8298;BME280;4187;42.778;23.242;2023-05-02T04:26:01;95715.81;;;12.37;100.00
8298;BME280;4187;42.778;23.242;2023-05-02T04:28:28;95704.00;;;12.32;100.00
8298;BME280;4187;42.778;23.242;2023-05-02T04:30:56;95705.25;;;12.37;100.00
8298;BME280;4187;42.778;23.242;2023-05-02T04:33:23;95708.47;;;12.31;100.00
8298;BME280;4187;42.778;23.242;2023-05-02T04:35:50;95705.25;;;12.28;100.00
8298;BME280;4187;42.778;23.242;2023-05-02T04:38:17;95706.94;;;12.29;100.00
8298;BME280;4187;42.778;23.242;2023-05-02T04:40:44;95705.13;;;12.29;100.00
8298;BME280;4187;42.778;23.242;2023-05-02T04:43:10;95707.50;;;12.23;100.00
8298;BME280;4187;42.778;23.242;2023-05-02T04:45:37;95708.75;;;12.28;100.00
8298;BME280;4187;42.778;23.242;2023-05-02T04:48:05;95709.13;;;12.33;100.00
8298;BME280;4187;42.778;23.242;2023-05-02T04:50:32;95712.06;;;12.40;100.00
8298;BME280;4187;42.778;23.242;2023-05-02T04:52:59;95709.69;;;12.37;100.00
8298;BME280;4187;42.778;23.242;2023-05-02T04:55:26;95711.38;;;12.38;100.00
8298;BME280;4187;42.778;23.242;2023-05-02T04:57:53;95713.69;;;12.41;100.00
8298;BME280;4187;42.778;23.242;2023-05-02T05:00:20;95714.81;;;12.48;100.00
8298;BME280;4187;42.778;23.242;2023-05-02T05:02:50;95691.56;;;12.42;100.00
8298;BME280;4187;42.778;23.242;2023-05-02T05:05:18;95708.31;;;12.60;100.00
8298;BME280;4187;42.778;23.242;2023-05-02T05:07:45;95709.25;;;12.69;100.00
8298;BME280;4187;42.778;23.242;2023-05-02T05:10:12;95708.84;;;12.73;100.00
8298;BME280;4187;42.778;23.242;2023-05-02T05:12:39;95711.72;;;12.80;100.00
8298;BME280;4187;42.778;23.242;2023-05-02T05:15:07;95717.41;;;12.85;100.00
8298;BME280;4187;42.778;23.242;2023-05-02T05:17:34;95710.69;;;12.90;100.00
8298;BME280;4187;42.778;23.242;2023-05-02T05:20:02;95706.84;;;13.02;100.00
8298;BME280;4187;42.778;23.242;2023-05-02T05:22:30;95714.22;;;13.08;100.00
8298;BME280;4187;42.778;23.242;2023-05-02T05:24:57;95708.13;;;13.26;100.00
8298;BME280;4187;42.778;23.242;2023-05-02T05:27:24;95713.56;;;13.24;100.00
8298;BME280;4187;42.778;23.242;2023-05-02T05:29:51;95716.59;;;13.29;100.00
8298;BME280;4187;42.778;23.242;2023-05-02T05:32:17;95729.94;;;13.37;100.00
8298;BME280;4187;42.778;23.242;2023-05-02T05:34:44;95724.13;;;13.51;100.00
8298;BME280;4187;42.778;23.242;2023-05-02T05:37:11;95725.06;;;13.68;100.00
8298;BME280;4187;42.778;23.242;2023-05-02T05:39:39;95734.69;;;13.69;100.00
8298;BME280;4187;42.778;23.242;2023-05-02T05:42:07;95738.66;;;13.65;100.00
8298;BME280;4187;42.778;23.242;2023-05-02T05:44:34;95741.91;;;13.59;100.00
8298;BME280;4187;42.778;23.242;2023-05-02T05:47:01;95737.28;;;13.61;100.00
8298;BME280;4187;42.778;23.242;2023-05-02T05:49:28;95712.44;;;13.62;100.00
8298;BME280;4187;42.778;23.242;2023-05-02T05:51:55;95739.41;;;13.75;100.00
8298;BME280;4187;42.778;23.242;2023-05-02T05:54:22;95740.88;;;13.95;100.00
8298;BME280;4187;42.778;23.242;2023-05-02T05:56:50;95743.22;;;14.16;100.00
8298;BME280;4187;42.778;23.242;2023-05-02T05:59:17;95742.06;;;14.18;100.00
8298;BME280;4187;42.778;23.242;2023-05-02T06:01:44;95747.50;;;14.34;100.00
8298;BME280;4187;42.778;23.242;2023-05-02T06:04:11;95746.25;;;14.47;100.00
8298;BME280;4187;42.778;23.242;2023-05-02T06:06:38;95753.84;;;14.67;100.00
8298;BME280;4187;42.778;23.242;2023-05-02T06:09:04;95758.84;;;14.70;100.00
8298;BME280;4187;42.778;23.242;2023-05-02T06:11:31;95764.97;;;14.71;100.00
8298;BME280;4187;42.778;23.242;2023-05-02T06:13:59;95764.31;;;14.69;99.37
8298;BME280;4187;42.778;23.242;2023-05-02T06:16:26;95755.22;;;14.79;99.23
8298;BME280;4187;42.778;23.242;2023-05-02T06:18:53;95751.09;;;14.85;99.39
8298;BME280;4187;42.778;23.242;2023-05-02T06:21:20;95749.63;;;14.90;97.32
8298;BME280;4187;42.778;23.242;2023-05-02T06:23:47;95736.53;;;14.97;97.45
8298;BME280;4187;42.778;23.242;2023-05-02T06:26:13;95755.88;;;15.15;95.63
8298;BME280;4187;42.778;23.242;2023-05-02T06:28:40;95759.72;;;15.21;94.45
8298;BME280;4187;42.778;23.242;2023-05-02T06:31:09;95745.59;;;15.20;93.42
8298;BME280;4187;42.778;23.242;2023-05-02T06:33:36;95747.41;;;15.20;92.56
8298;BME280;4187;42.778;23.242;2023-05-02T06:36:03;95746.44;;;15.29;93.28
8298;BME280;4187;42.778;23.242;2023-05-02T06:38:29;95752.44;;;15.31;92.90
8298;BME280;4187;42.778;23.242;2023-05-02T06:40:56;95747.94;;;15.31;91.84
8298;BME280;4187;42.778;23.242;2023-05-02T06:43:23;95755.31;;;15.45;91.14
8298;BME280;4187;42.778;23.242;2023-05-02T06:45:52;95751.88;;;15.61;91.36
8298;BME280;4187;42.778;23.242;2023-05-02T06:48:21;95747.53;;;15.52;90.16
8298;BME280;4187;42.778;23.242;2023-05-02T06:50:50;95749.84;;;15.55;89.18
8298;BME280;4187;42.778;23.242;2023-05-02T06:53:17;95743.56;;;15.56;89.37
8298;BME280;4187;42.778;23.242;2023-05-02T06:55:44;95738.72;;;15.51;88.79
8298;BME280;4187;42.778;23.242;2023-05-02T06:58:13;95752.53;;;15.79;87.52
8298;BME280;4187;42.778;23.242;2023-05-02T07:00:40;95755.72;;;15.83;86.16
8298;BME280;4187;42.778;23.242;2023-05-02T07:03:07;95765.38;;;15.92;87.65
8298;BME280;4187;42.778;23.242;2023-05-02T07:05:36;95754.41;;;15.95;87.34
8298;BME280;4187;42.778;23.242;2023-05-02T07:08:04;95752.06;;;16.00;86.64
8298;BME280;4187;42.778;23.242;2023-05-02T07:10:31;95746.41;;;16.11;86.50
8298;BME280;4187;42.778;23.242;2023-05-02T07:12:58;95757.53;;;16.23;85.35
8298;BME280;4187;42.778;23.242;2023-05-02T07:15:24;95761.03;;;16.39;85.83
8298;BME280;4187;42.778;23.242;2023-05-02T07:17:51;95722.78;;;16.24;83.95
8298;BME280;4187;42.778;23.242;2023-05-02T07:20:18;95767.03;;;16.33;83.20
8298;BME280;4187;42.778;23.242;2023-05-02T07:22:46;95764.84;;;16.37;83.60
8298;BME280;4187;42.778;23.242;2023-05-02T07:25:13;95760.88;;;16.49;83.93
8298;BME280;4187;42.778;23.242;2023-05-02T07:27:40;95779.03;;;16.53;83.47
8298;BME280;4187;42.778;23.242;2023-05-02T07:30:07;95756.34;;;16.49;84.69
8298;BME280;4187;42.778;23.242;2023-05-02T07:32:34;95762.06;;;16.54;83.40
8298;BME280;4187;42.778;23.242;2023-05-02T07:35:01;95767.69;;;16.59;82.79
8298;BME280;4187;42.778;23.242;2023-05-02T07:37:31;95740.38;;;16.57;84.09
8298;BME280;4187;42.778;23.242;2023-05-02T07:40:00;95747.81;;;16.86;83.45
8298;BME280;4187;42.778;23.242;2023-05-02T07:42:31;95766.22;;;17.04;83.16
8298;BME280;4187;42.778;23.242;2023-05-02T07:44:58;95730.06;;;17.01;81.86
8298;BME280;4187;42.778;23.242;2023-05-02T07:47:25;95762.91;;;17.41;81.28
8298;BME280;4187;42.778;23.242;2023-05-02T07:49:52;95760.41;;;17.39;79.78
8298;BME280;4187;42.778;23.242;2023-05-02T07:52:21;95763.31;;;17.52;79.94
8298;BME280;4187;42.778;23.242;2023-05-02T07:54:48;95731.69;;;17.41;79.38
8298;BME280;4187;42.778;23.242;2023-05-02T07:57:17;95755.44;;;17.67;78.16
8298;BME280;4187;42.778;23.242;2023-05-02T07:59:44;95750.28;;;17.88;79.65
8298;BME280;4187;42.778;23.242;2023-05-02T08:02:11;95759.00;;;18.05;79.17
8298;BME280;4187;42.778;23.242;2023-05-02T08:04:38;95755.50;;;18.27;77.93
8298;BME280;4187;42.778;23.242;2023-05-02T08:07:07;95698.66;;;17.96;75.92
8298;BME280;4187;42.778;23.242;2023-05-02T08:09:33;95746.09;;;18.31;76.76
8298;BME280;4187;42.778;23.242;2023-05-02T08:12:00;95749.03;;;18.36;76.82
8298;BME280;4187;42.778;23.242;2023-05-02T08:14:29;95736.59;;;18.28;76.52
8298;BME280;4187;42.778;23.242;2023-05-02T08:16:56;95744.00;;;18.41;76.79
8298;BME280;4187;42.778;23.242;2023-05-02T08:19:22;95744.25;;;18.54;76.25
8298;BME280;4187;42.778;23.242;2023-05-02T08:21:49;95760.47;;;18.67;75.63
8298;BME280;4187;42.778;23.242;2023-05-02T08:24:16;95748.84;;;18.60;74.56
8298;BME280;4187;42.778;23.242;2023-05-02T08:26:43;95743.50;;;18.60;75.95
8298;BME280;4187;42.778;23.242;2023-05-02T08:29:10;95749.31;;;18.64;74.94
8298;BME280;4187;42.778;23.242;2023-05-02T08:31:38;95700.13;;;18.35;73.83
8298;BME280;4187;42.778;23.242;2023-05-02T08:34:05;95747.09;;;18.82;74.86
8298;BME280;4187;42.778;23.242;2023-05-02T08:36:32;95734.56;;;18.82;74.69
8298;BME280;4187;42.778;23.242;2023-05-02T08:38:59;95744.91;;;18.85;73.18
8298;BME280;4187;42.778;23.242;2023-05-02T08:41:28;95754.69;;;18.93;75.70
8298;BME280;4187;42.778;23.242;2023-05-02T08:43:55;95739.56;;;19.00;73.74
8298;BME280;4187;42.778;23.242;2023-05-02T08:46:22;95736.28;;;19.34;74.30
8298;BME280;4187;42.778;23.242;2023-05-02T08:48:52;95752.81;;;19.23;71.72
8298;BME280;4187;42.778;23.242;2023-05-02T08:51:22;95686.91;;;18.86;71.47
8298;BME280;4187;42.778;23.242;2023-05-02T08:53:51;95734.00;;;19.45;74.20
8298;BME280;4187;42.778;23.242;2023-05-02T08:56:18;95743.28;;;19.49;72.96
8298;BME280;4187;42.778;23.242;2023-05-02T08:58:45;95750.22;;;19.44;71.71
8298;BME280;4187;42.778;23.242;2023-05-02T09:01:14;95740.50;;;19.57;71.14
8298;BME280;4187;42.778;23.242;2023-05-02T09:03:42;95734.47;;;19.70;70.39
8298;BME280;4187;42.778;23.242;2023-05-02T09:06:12;95737.94;;;19.85;71.61
8298;BME280;4187;42.778;23.242;2023-05-02T09:08:40;95726.13;;;20.01;67.83
8298;BME280;4187;42.778;23.242;2023-05-02T09:11:08;95729.13;;;20.12;71.56
8298;BME280;4187;42.778;23.242;2023-05-02T09:13:36;95726.44;;;20.12;70.52
8298;BME280;4187;42.778;23.242;2023-05-02T09:16:05;95729.72;;;20.29;68.47
8298;BME280;4187;42.778;23.242;2023-05-02T09:18:33;95715.59;;;20.42;69.00
8298;BME280;4187;42.778;23.242;2023-05-02T09:21:04;95718.63;;;20.60;69.48
8298;BME280;4187;42.778;23.242;2023-05-02T09:23:39;95726.84;;;20.93;67.46
8298;BME280;4187;42.778;23.242;2023-05-02T09:26:16;95701.03;;;20.57;66.45
8298;BME280;4187;42.778;23.242;2023-05-02T09:28:44;95724.63;;;20.62;65.14
8298;BME280;4187;42.778;23.242;2023-05-02T09:31:12;95683.94;;;20.31;65.50
8298;BME280;4187;42.778;23.242;2023-05-02T09:33:40;95712.84;;;20.63;66.87
8298;BME280;4187;42.778;23.242;2023-05-02T09:36:09;95704.78;;;20.91;67.31
8298;BME280;4187;42.778;23.242;2023-05-02T09:38:38;95717.59;;;20.95;66.06
8298;BME280;4187;42.778;23.242;2023-05-02T09:41:04;95701.94;;;20.99;66.24
8298;BME280;4187;42.778;23.242;2023-05-02T09:43:31;95715.75;;;21.30;65.27
8298;BME280;4187;42.778;23.242;2023-05-02T09:46:00;95706.13;;;21.49;65.72
8298;BME280;4187;42.778;23.242;2023-05-02T09:48:28;95703.22;;;21.50;62.72
8298;BME280;4187;42.778;23.242;2023-05-02T09:50:55;95701.03;;;21.19;63.42
8298;BME280;4187;42.778;23.242;2023-05-02T09:53:25;95698.38;;;20.92;64.43
8298;BME280;4187;42.778;23.242;2023-05-02T09:56:03;95643.19;;;20.42;65.76
8298;BME280;4187;42.778;23.242;2023-05-02T09:58:30;95697.34;;;20.93;65.78
8298;BME280;4187;42.778;23.242;2023-05-02T10:00:57;95689.06;;;21.22;63.18
8298;BME280;4187;42.778;23.242;2023-05-02T10:03:26;95675.00;;;21.20;62.96
8298;BME280;4187;42.778;23.242;2023-05-02T10:05:53;95698.81;;;21.36;62.30
8298;BME280;4187;42.778;23.242;2023-05-02T10:08:25;95689.97;;;21.35;62.80
8298;BME280;4187;42.778;23.242;2023-05-02T10:10:54;95690.69;;;21.16;61.11
8298;BME280;4187;42.778;23.242;2023-05-02T10:13:23;95692.25;;;21.04;60.47
8298;BME280;4187;42.778;23.242;2023-05-02T10:15:58;95683.53;;;20.89;62.30
8298;BME280;4187;42.778;23.242;2023-05-02T10:18:29;95691.22;;;20.71;60.86
8298;BME280;4187;42.778;23.242;2023-05-02T10:21:02;95684.19;;;20.63;61.10
8298;BME280;4187;42.778;23.242;2023-05-02T10:23:32;95680.16;;;20.80;61.90
8298;BME280;4187;42.778;23.242;2023-05-02T10:25:59;95683.69;;;20.87;60.16
8298;BME280;4187;42.778;23.242;2023-05-02T10:28:28;95660.38;;;20.88;62.15
8298;BME280;4187;42.778;23.242;2023-05-02T10:30:57;95677.16;;;20.97;60.67
8298;BME280;4187;42.778;23.242;2023-05-02T10:33:25;95666.72;;;21.15;61.99
8298;BME280;4187;42.778;23.242;2023-05-02T10:35:54;95672.59;;;21.31;62.16
8298;BME280;4187;42.778;23.242;2023-05-02T10:38:22;95662.31;;;21.48;60.04
8298;BME280;4187;42.778;23.242;2023-05-02T10:40:53;95671.38;;;21.40;59.36
8298;BME280;4187;42.778;23.242;2023-05-02T10:43:23;95659.22;;;21.51;59.25
8298;BME280;4187;42.778;23.242;2023-05-02T10:45:52;95664.00;;;21.62;59.02
8298;BME280;4187;42.778;23.242;2023-05-02T10:48:21;95651.81;;;21.79;60.33
8298;BME280;4187;42.778;23.242;2023-05-02T10:50:50;95655.00;;;22.02;56.99
8298;BME280;4187;42.778;23.242;2023-05-02T10:53:28;95649.53;;;21.76;56.15
8298;BME280;4187;42.778;23.242;2023-05-02T10:56:12;95664.25;;;21.80;58.35
8298;BME280;4187;42.778;23.242;2023-05-02T10:58:40;95638.19;;;21.74;56.80
8298;BME280;4187;42.778;23.242;2023-05-02T11:01:36;95660.31;;;21.83;55.91
8298;BME280;4187;42.778;23.242;2023-05-02T11:04:08;95644.41;;;21.81;58.51
8298;BME280;4187;42.778;23.242;2023-05-02T11:06:37;95660.34;;;21.96;58.11
8298;BME280;4187;42.778;23.242;2023-05-02T11:09:30;95650.19;;;21.85;55.46
8298;BME280;4187;42.778;23.242;2023-05-02T11:12:01;95625.16;;;21.84;55.42
8298;BME280;4187;42.778;23.242;2023-05-02T11:14:43;95650.44;;;22.16;57.34
8298;BME280;4187;42.778;23.242;2023-05-02T11:17:15;95648.59;;;22.30;55.51
8298;BME280;4187;42.778;23.242;2023-05-02T11:22:56;95619.13;;;22.81;55.94
8298;BME280;4187;42.778;23.242;2023-05-02T11:25:34;95626.09;;;23.01;55.94
8298;BME280;4187;42.778;23.242;2023-05-02T11:28:01;95629.91;;;23.25;53.40
8298;BME280;4187;42.778;23.242;2023-05-02T11:30:39;95634.44;;;23.31;52.20
8298;BME280;4187;42.778;23.242;2023-05-02T11:33:17;95636.09;;;23.32;51.70
8298;BME280;4187;42.778;23.242;2023-05-02T11:35:46;95638.09;;;22.99;51.18
8298;BME280;4187;42.778;23.242;2023-05-02T11:38:18;95637.47;;;23.03;52.58
8298;BME280;4187;42.778;23.242;2023-05-02T11:40:56;95599.69;;;22.79;49.12
8298;BME280;4187;42.778;23.242;2023-05-02T11:43:25;95626.31;;;22.93;50.64
8298;BME280;4187;42.778;23.242;2023-05-02T11:45:53;95627.53;;;23.04;51.96
8298;BME280;4187;42.778;23.242;2023-05-02T11:48:22;95616.59;;;23.43;56.00
8298;BME280;4187;42.778;23.242;2023-05-02T11:50:53;95610.81;;;23.71;52.49
8298;BME280;4187;42.778;23.242;2023-05-02T11:53:26;95607.69;;;23.74;50.04
8298;BME280;4187;42.778;23.242;2023-05-02T11:55:55;95605.25;;;23.66;50.59
8298;BME280;4187;42.778;23.242;2023-05-02T11:58:23;95607.75;;;23.67;50.00
8298;BME280;4187;42.778;23.242;2023-05-02T12:00:51;95601.28;;;23.44;50.63
8298;BME280;4187;42.778;23.242;2023-05-02T12:03:25;95598.59;;;23.44;52.39
8298;BME280;4187;42.778;23.242;2023-05-02T12:05:52;95586.97;;;23.43;49.18
8298;BME280;4187;42.778;23.242;2023-05-02T12:08:21;95591.69;;;23.48;52.05
8298;BME280;4187;42.778;23.242;2023-05-02T12:10:49;95572.25;;;23.46;49.74
8298;BME280;4187;42.778;23.242;2023-05-02T12:13:17;95586.53;;;23.46;48.92
8298;BME280;4187;42.778;23.242;2023-05-02T12:15:45;95575.56;;;23.41;50.15
8298;BME280;4187;42.778;23.242;2023-05-02T12:18:13;95577.88;;;23.38;49.59
8298;BME280;4187;42.778;23.242;2023-05-02T12:20:41;95573.56;;;23.30;49.04
8298;BME280;4187;42.778;23.242;2023-05-02T12:23:09;95575.56;;;23.41;50.44
8298;BME280;4187;42.778;23.242;2023-05-02T12:25:38;95565.34;;;23.18;49.52
8298;BME280;4187;42.778;23.242;2023-05-02T12:28:05;95569.19;;;22.98;49.26
8298;BME280;4187;42.778;23.242;2023-05-02T12:30:33;95569.25;;;22.78;49.79
8298;BME280;4187;42.778;23.242;2023-05-02T12:33:03;95562.38;;;22.82;51.29
8298;BME280;4187;42.778;23.242;2023-05-02T12:35:31;95567.81;;;22.69;51.15
8298;BME280;4187;42.778;23.242;2023-05-02T12:38:11;95549.28;;;22.35;51.82
8298;BME280;4187;42.778;23.242;2023-05-02T12:40:46;95553.38;;;22.44;50.52
8298;BME280;4187;42.778;23.242;2023-05-02T12:43:13;95541.97;;;22.55;52.57
8298;BME280;4187;42.778;23.242;2023-05-02T12:45:40;95528.50;;;22.61;47.84
8298;BME280;4187;42.778;23.242;2023-05-02T12:48:18;95543.22;;;22.59;49.54
8298;BME280;4187;42.778;23.242;2023-05-02T12:50:46;95533.34;;;22.33;49.10
8298;BME280;4187;42.778;23.242;2023-05-02T12:53:14;95522.56;;;22.46;48.18
8298;BME280;4187;42.778;23.242;2023-05-02T12:55:41;95515.94;;;22.49;48.78
8298;BME280;4187;42.778;23.242;2023-05-02T12:58:10;95523.31;;;22.73;49.05
8298;BME280;4187;42.778;23.242;2023-05-02T13:00:39;95508.44;;;22.71;50.08
8298;BME280;4187;42.778;23.242;2023-05-02T13:03:07;95519.75;;;22.86;48.71
8298;BME280;4187;42.778;23.242;2023-05-02T13:05:34;95526.25;;;22.65;47.24
8298;BME280;4187;42.778;23.242;2023-05-02T13:08:01;95530.34;;;22.74;48.40
8298;BME280;4187;42.778;23.242;2023-05-02T13:10:29;95519.50;;;22.87;48.51
8298;BME280;4187;42.778;23.242;2023-05-02T13:12:56;95487.16;;;22.49;47.04
8298;BME280;4187;42.778;23.242;2023-05-02T13:15:23;95506.38;;;22.59;49.28
8298;BME280;4187;42.778;23.242;2023-05-02T13:17:52;95523.50;;;22.78;48.13
8298;BME280;4187;42.778;23.242;2023-05-02T13:20:19;95518.41;;;22.50;47.49
8298;BME280;4187;42.778;23.242;2023-05-02T13:22:45;95515.16;;;22.35;47.71